Terminal Aerodrome Forecast
Issued by NWS

Home | Current Version | Previous Version | Text Only | Print | Product List | Glossary On
Versions: 1 2 3 4 5 6 7 8 9 10 11 12
000
FTUS45 KRIW 291720
TAFJAC
TAF
KJAC 291720Z 2918/3018 VRB05KT P6SM VCSH SCT070 BKN100
     FM291900 21009KT P6SM VCTS SCT050CB BKN080
      TEMPO 2920/2923 VRB10G20KT -TSRA SCT040CB
     FM300200 VRB06KT P6SM VCSH SCT060 BKN100
     FM301200 VRB06KT P6SM VCFG SCT009 SCT120
      AMD LTD TO CLD VIS AND WIND=

USA.gov is the U.S. government's official web portal to all federal, state and local government web resources and services.